createdAt,value
2022-11-17T00:00:08.842Z,23.5
2022-11-17T00:05:48.065Z,23.4
2022-11-17T00:11:26.077Z,23.3
2022-11-17T00:16:39.849Z,23.1
2022-11-17T00:22:17.155Z,23.4
2022-11-17T00:27:39.068Z,23.9
2022-11-17T00:33:01.231Z,23.7
2022-11-17T00:38:08.701Z,23.5
2022-11-17T00:43:46.302Z,23.4
2022-11-17T00:48:37.950Z,23.3
2022-11-17T00:53:45.611Z,23.3
2022-11-17T00:59:08.773Z,23.2
2022-11-17T01:04:15.540Z,23.8
2022-11-17T01:09:39.008Z,23.8
2022-11-17T01:15:00.695Z,23.6
2022-11-17T01:20:38.744Z,23.4
2022-11-17T01:25:30.617Z,23.3
2022-11-17T01:30:37.503Z,23.2
2022-11-17T01:35:29.429Z,23.1
2022-11-17T01:40:50.865Z,23.3
2022-11-17T01:46:14.097Z,23.9
2022-11-17T01:51:20.937Z,23.8
2022-11-17T01:56:41.919Z,23.6
2022-11-17T02:02:05.843Z,23.4
2022-11-17T02:07:43.516Z,23.3
2022-11-17T02:13:21.128Z,23.2
2022-11-17T02:18:54.084Z,23.1
2022-11-17T02:23:45.848Z,23.7
2022-11-17T02:29:09.823Z,23.9
2022-11-17T02:34:33.187Z,23.6
2022-11-17T02:39:55.053Z,23.4
2022-11-17T02:45:02.230Z,23.3
2022-11-17T02:50:28.343Z,23.3
2022-11-17T02:55:52.212Z,23.1
2022-11-17T03:00:58.312Z,23.3
2022-11-17T03:06:21.987Z,23.8
2022-11-17T03:12:01.035Z,23.8
2022-11-17T03:17:37.972Z,23.5
2022-11-17T03:23:16.384Z,23.3
2022-11-17T03:28:54.907Z,23.3
2022-11-17T03:34:34.497Z,23.1
2022-11-17T03:40:19.377Z,23.3
2022-11-17T03:45:41.798Z,23.8
2022-11-17T03:50:32.557Z,23.8
2022-11-17T03:56:11.896Z,23.5
2022-11-17T04:01:33.812Z,23.4
2022-11-17T04:06:55.991Z,23.3
2022-11-17T04:12:36.531Z,23.2
2022-11-17T04:18:15.564Z,23.2
2022-11-17T04:23:55.467Z,23.8
2022-11-17T04:29:18.070Z,23.8
2022-11-17T04:34:55.810Z,23.6
2022-11-17T04:40:17.740Z,23.3
2022-11-17T04:45:56.354Z,23.2
2022-11-17T04:51:34.527Z,23.1
2022-11-17T04:57:01.578Z,23.1
2022-11-17T05:02:27.315Z,23.6
2022-11-17T05:08:05.750Z,23.8
2022-11-17T05:13:43.049Z,23.4
2022-11-17T05:19:08.674Z,23.3
2022-11-17T05:24:30.926Z,23.1
2022-11-17T05:30:07.961Z,23
2022-11-17T05:35:51.125Z,23.1
2022-11-17T05:41:29.615Z,23.6
2022-11-17T05:46:56.470Z,24.3
2022-11-17T05:52:23.731Z,24.2
2022-11-17T05:57:45.810Z,23.8
2022-11-17T06:02:55.172Z,23.6
2022-11-17T06:08:25.111Z,23.8
2022-11-17T06:14:03.679Z,24.4
2022-11-17T06:19:39.928Z,24.3
2022-11-17T06:25:19.245Z,24
2022-11-17T06:30:59.209Z,23.7
2022-11-17T06:36:21.134Z,23.9
2022-11-17T06:42:02.710Z,24.5
2022-11-17T06:47:41.224Z,24.6
2022-11-17T06:53:24.845Z,24.1
2022-11-17T06:58:48.518Z,23.9
2022-11-17T07:04:12.518Z,23.9
2022-11-17T07:09:50.621Z,24.5
2022-11-17T07:15:34.454Z,24.8
2022-11-17T07:20:57.814Z,24.4
2022-11-17T07:26:26.685Z,24.1
2022-11-17T07:32:05.058Z,23.9
2022-11-17T07:37:43.535Z,24.3
2022-11-17T07:43:21.926Z,24.4
2022-11-17T07:49:03.897Z,24
2022-11-17T07:54:27.336Z,23.8
2022-11-17T08:00:11.768Z,23.6
2022-11-17T08:05:40.069Z,23.4
2022-11-17T08:10:50.395Z,23.3
2022-11-17T08:16:14.220Z,23.6
2022-11-17T08:21:40.044Z,24.1
2022-11-17T08:27:03.691Z,24.2
2022-11-17T08:32:25.810Z,23.8
2022-11-17T08:37:52.278Z,23.6
2022-11-17T08:43:35.015Z,23.4
2022-11-17T08:49:13.932Z,23.3
2022-11-17T08:54:37.706Z,23.3
2022-11-17T09:00:17.782Z,23.6
2022-11-17T09:05:55.538Z,24.1
2022-11-17T09:11:51.676Z,23.9
2022-11-17T09:17:33.676Z,23.6
2022-11-17T09:22:59.545Z,23.4
2022-11-17T09:28:23.899Z,23.3
2022-11-17T09:33:49.347Z,23.2
2022-11-17T09:39:13.538Z,23.4
2022-11-17T09:44:52.666Z,23.9
2022-11-17T09:51:09.385Z,24
2022-11-17T09:56:37.926Z,23.6
2022-11-17T10:02:16.834Z,23.4
2022-11-17T10:08:00.798Z,23.3
2022-11-17T10:13:40.343Z,23.2
2022-11-17T10:19:18.559Z,23.4
2022-11-17T10:24:57.969Z,23.9
2022-11-17T10:30:35.018Z,23.9
2022-11-17T10:36:20.043Z,23.6
2022-11-17T10:42:05.962Z,23.4
2022-11-17T10:47:53.812Z,23.3
2022-11-17T10:53:32.295Z,23.1
2022-11-17T10:59:11.502Z,23.4
2022-11-17T11:04:48.441Z,23.9
2022-11-17T11:10:32.305Z,23.9
2022-11-17T11:16:10.540Z,23.6
2022-11-17T11:21:51.566Z,23.4
2022-11-17T11:27:13.963Z,23.3
2022-11-17T11:32:57.425Z,23.1
2022-11-17T11:38:37.676Z,23.4
2022-11-17T11:44:21.039Z,23.9
2022-11-17T11:49:59.582Z,23.8
2022-11-17T11:55:30.873Z,23.5
2022-11-17T12:01:11.486Z,23.4
2022-11-17T12:06:50.430Z,23.3
2022-11-17T12:12:28.551Z,23.1
2022-11-17T12:18:12.924Z,23.4
2022-11-17T12:23:51.251Z,23.9
2022-11-17T12:29:31.026Z,23.8
2022-11-17T12:35:09.042Z,23.6
2022-11-17T12:40:32.095Z,23.3
2022-11-17T12:46:15.829Z,23.2
2022-11-17T12:52:30.200Z,23.1
2022-11-17T12:58:10.593Z,23.3
2022-11-17T13:03:48.364Z,23.8
2022-11-17T13:09:58.810Z,23.8
2022-11-17T13:15:42.181Z,23.5
2022-11-17T13:21:20.274Z,23.3
2022-11-17T13:26:28.595Z,23.2
2022-11-17T13:32:12.481Z,23.1
2022-11-17T13:37:54.684Z,23
2022-11-17T13:43:38.874Z,22.9
2022-11-17T13:49:17.991Z,22.9
2022-11-17T13:54:59.617Z,22.8
2022-11-17T14:00:39.507Z,22.8
2022-11-17T14:06:19.032Z,22.7
2022-11-17T14:11:56.827Z,22.6
2022-11-17T14:17:35.379Z,22.5
2022-11-17T14:23:21.555Z,22.5
2022-11-17T14:28:59.989Z,22.4
2022-11-17T14:34:47.992Z,22.3
2022-11-17T14:40:30.650Z,22.3
2022-11-17T14:45:56.453Z,22.2
2022-11-17T14:51:23.614Z,22.1
2022-11-17T14:56:31.248Z,22.1
2022-11-17T15:02:15.635Z,22
2022-11-17T15:08:29.506Z,21.9
2022-11-17T15:14:09.192Z,21.9
2022-11-17T15:19:31.371Z,21.8
2022-11-17T15:25:14.902Z,21.8
2022-11-17T15:30:38.612Z,21.6
2022-11-17T15:36:16.918Z,21.6
2022-11-17T15:42:03.662Z,21.6
2022-11-17T15:47:26.062Z,22.2
2022-11-17T15:53:36.044Z,22.7
2022-11-17T15:59:16.478Z,23.4
2022-11-17T16:04:55.086Z,24.3
2022-11-17T16:10:06.898Z,24.9
2022-11-17T16:15:44.419Z,25.3
2022-11-17T16:21:23.064Z,25.4
2022-11-17T16:27:01.057Z,25.8
2022-11-17T16:32:27.997Z,25.9
2022-11-17T16:37:56.051Z,26.1
2022-11-17T16:43:45.126Z,26.4
2022-11-17T16:49:23.273Z,26.8
2022-11-17T16:55:04.767Z,26.9
2022-11-17T17:00:27.420Z,27.3
2022-11-17T17:06:06.339Z,27.5
2022-11-17T17:11:29.795Z,27.7
2022-11-17T17:16:51.836Z,27.9
2022-11-17T17:22:14.619Z,28.3
2022-11-17T17:27:22.079Z,28.6
2022-11-17T17:33:01.359Z,28.9
2022-11-17T17:38:23.909Z,29.1
2022-11-17T17:44:02.192Z,29.4
2022-11-17T17:49:39.964Z,29.6
2022-11-17T17:54:46.522Z,29.8
2022-11-17T18:00:24.657Z,30
2022-11-17T18:05:48.897Z,30.3
2022-11-17T18:11:27.127Z,30.4
2022-11-17T18:17:09.262Z,30.6
2022-11-17T18:22:52.857Z,30.8
2022-11-17T18:28:37.850Z,30.9
2022-11-17T18:34:16.228Z,31
2022-11-17T18:39:53.697Z,31.1
2022-11-17T18:45:31.843Z,31.3
2022-11-17T18:51:34.252Z,31.3
2022-11-17T18:57:18.166Z,31.4
2022-11-17T19:02:41.109Z,31.6
2022-11-17T19:08:19.599Z,31.6
2022-11-17T19:13:57.637Z,31.8
2022-11-17T19:19:35.933Z,31.9
2022-11-17T19:25:00.249Z,31.9
2022-11-17T19:30:41.299Z,32.1
2022-11-17T19:35:59.577Z,32.1
2022-11-17T19:41:38.129Z,32.3
2022-11-17T19:47:21.412Z,32.3
2022-11-17T19:52:58.252Z,32.3
2022-11-17T19:58:20.834Z,32.4
2022-11-17T20:03:48.218Z,32.4
2022-11-17T20:08:55.297Z,32.6
2022-11-17T20:14:02.612Z,32.5
2022-11-17T20:20:10.252Z,32.6
2022-11-17T20:25:38.233Z,32.6
2022-11-17T20:31:21.964Z,32.7
2022-11-17T20:37:00.186Z,32.8
2022-11-17T20:42:39.472Z,32.8
2022-11-17T20:48:02.315Z,32.7
2022-11-17T20:53:24.674Z,32.6
2022-11-17T20:59:03.131Z,32.4
2022-11-17T21:04:27.042Z,32.3
2022-11-17T21:10:12.208Z,32.2
2022-11-17T21:15:34.615Z,32.1
2022-11-17T21:21:18.578Z,31.9
2022-11-17T21:26:56.331Z,31.8
2022-11-17T21:32:25.850Z,31.6
2022-11-17T21:37:53.745Z,31.4
2022-11-17T21:43:16.993Z,30.6
2022-11-17T21:48:54.353Z,29.9
2022-11-17T21:54:32.313Z,29.2
2022-11-17T21:59:54.877Z,28.6
2022-11-17T22:05:16.796Z,28.2
2022-11-17T22:16:19.055Z,27.5
2022-11-17T22:21:56.802Z,27.2
2022-11-17T22:27:49.815Z,28.6
2022-11-17T22:33:30.317Z,29.1
2022-11-17T22:38:52.778Z,29.1
2022-11-17T22:44:37.654Z,29
2022-11-17T22:50:15.362Z,28.8
2022-11-17T22:55:52.578Z,28.3
2022-11-17T23:06:42.386Z,27.5
2022-11-17T23:12:58.414Z,27.3
2022-11-17T23:18:20.919Z,27
2022-11-17T23:23:43.437Z,26.8
2022-11-17T23:29:21.774Z,27
2022-11-17T23:34:59.177Z,27.6
2022-11-17T23:40:40.341Z,27.7
2022-11-17T23:46:19.593Z,27.7
2022-11-17T23:51:57.663Z,27.2
2022-11-17T23:57:34.937Z,26.9
